Time;durP1;ratioP1;P1;durP2;ratioP2;P2;SDS_P1;SDS_P2;PMS_P1;PMS_P2;Temp;Humidity;BMP_temperature;BMP_pressure;BME280_temperature;BME280_humidity;BME280_pressure;Samples;Min_cycle;Max_cycle;Signal;HPM_P1;HPM_P2
2023/04/17 00:00:37;;;;;;;54.22;26.77;;;;;;;9.21;100.00;102196.56;4939164;29;20059;-81
2023/04/17 00:03:03;;;;;;;55.95;26.13;;;;;;;9.17;100.00;102200.44;4973693;28;20037;-81
2023/04/17 00:05:30;;;;;;;57.58;26.50;;;;;;;9.28;100.00;102202.59;4973414;28;20034;-80
2023/04/17 00:07:58;;;;;;;56.33;26.50;;;;;;;9.21;100.00;102202.03;4973040;28;20042;-81
2023/04/17 00:10:24;;;;;;;52.90;26.45;;;;;;;9.28;100.00;102200.78;4972692;28;20061;-80
2023/04/17 00:12:50;;;;;;;53.30;26.58;;;;;;;9.26;100.00;102207.28;4969710;28;20494;-81
2023/04/17 00:15:15;;;;;;;57.13;26.48;;;;;;;9.22;100.00;102201.09;4957897;28;20038;-81
2023/04/17 00:17:41;;;;;;;53.97;25.88;;;;;;;9.12;100.00;102195.22;4967847;28;20173;-81
2023/04/17 00:20:10;;;;;;;52.05;26.08;;;;;;;9.20;100.00;102194.81;4972768;28;20035;-80
2023/04/17 00:22:38;;;;;;;63.70;28.05;;;;;;;9.15;100.00;102195.06;4972544;28;20041;-80
2023/04/17 00:25:04;;;;;;;57.42;25.95;;;;;;;9.18;100.00;102202.19;4958399;28;20038;-80
2023/04/17 00:27:29;;;;;;;59.70;27.40;;;;;;;9.20;100.00;102200.28;4968854;28;20050;-81
2023/04/17 00:29:55;;;;;;;52.83;26.17;;;;;;;9.17;100.00;102194.97;4973817;28;20035;-80
2023/04/17 00:32:20;;;;;;;52.05;27.25;;;;;;;9.14;100.00;102193.28;4965958;28;20077;-80
2023/04/17 00:34:46;;;;;;;58.53;27.75;;;;;;;9.19;100.00;102201.25;4958992;28;20038;-80
2023/04/17 00:37:11;;;;;;;56.33;25.35;;;;;;;9.12;100.00;102188.88;4973756;28;20475;-80
2023/04/17 00:39:37;;;;;;;56.30;24.90;;;;;;;9.01;100.00;102187.56;4996186;28;20462;-81
2023/04/17 00:42:02;;;;;;;55.42;26.75;;;;;;;9.05;100.00;102195.59;5001885;28;20395;-80
2023/04/17 00:44:28;;;;;;;54.70;25.48;;;;;;;9.09;100.00;102183.56;5007715;28;20053;-80
2023/04/17 00:46:54;;;;;;;52.78;26.85;;;;;;;9.14;100.00;102184.19;4986203;28;20038;-81
2023/04/17 00:49:21;;;;;;;53.10;24.85;;;;;;;9.09;100.00;102176.25;4973790;28;20035;-80
2023/04/17 00:51:47;;;;;;;57.17;27.35;;;;;;;9.21;100.00;102185.63;4968425;28;20074;-80
2023/04/17 00:54:13;;;;;;;52.30;25.92;;;;;;;9.27;100.00;102182.59;4971551;28;20117;-79
2023/04/17 00:56:40;;;;;;;48.95;25.35;;;;;;;9.17;100.00;102174.00;4979406;28;20073;-81
2023/04/17 00:59:10;;;;;;;56.40;26.48;;;;;;;9.15;100.00;102180.50;4973555;28;20038;-80
2023/04/17 01:01:36;;;;;;;62.20;24.73;;;;;;;9.07;100.00;102167.25;4977484;28;20048;-76
2023/04/17 01:04:03;;;;;;;61.15;26.67;;;;;;;9.08;100.00;102171.72;4956485;28;20043;-75
2023/04/17 01:06:30;;;;;;;57.10;26.75;;;;;;;9.15;100.00;102184.13;4983966;28;20379;-76
2023/04/17 01:08:56;;;;;;;62.25;26.08;;;;;;;9.06;100.00;102181.84;4977245;28;20046;-75
2023/04/17 01:11:21;;;;;;;52.95;26.75;;;;;;;9.00;100.00;102171.22;4964328;28;20035;-75
2023/04/17 01:13:49;;;;;;;55.03;25.88;;;;;;;9.00;100.00;102173.97;4971507;28;20043;-75
2023/04/17 01:16:14;;;;;;;54.15;26.67;;;;;;;9.09;100.00;102178.09;4965224;28;20038;-74
2023/04/17 01:18:40;;;;;;;56.65;26.27;;;;;;;9.04;100.00;102169.25;4996742;28;20035;-74
2023/04/17 01:21:05;;;;;;;56.35;26.60;;;;;;;9.06;100.00;102175.50;4997495;28;20100;-75
2023/04/17 01:23:44;;;;;;;55.53;27.33;;;;;;;9.18;100.00;102183.97;4972503;28;20042;-75
2023/04/17 01:26:16;;;;;;;60.97;28.25;;;;;;;9.03;100.00;102179.28;4972585;28;20375;-75
2023/04/17 01:28:41;;;;;;;59.75;27.73;;;;;;;8.91;100.00;102172.59;4958076;28;20489;-75
2023/04/17 01:31:13;;;;;;;55.67;26.08;;;;;;;8.96;100.00;102181.44;4963801;28;20050;-75
2023/04/17 01:33:39;;;;;;;60.42;28.52;;;;;;;8.94;100.00;102180.66;4970216;28;20043;-75
2023/04/17 01:36:04;;;;;;;63.10;27.60;;;;;;;8.99;100.00;102174.94;4976682;28;20050;-74
2023/04/17 01:38:30;;;;;;;62.05;27.55;;;;;;;8.86;100.00;102174.69;4970953;28;20035;-75
2023/04/17 01:40:55;;;;;;;54.03;26.23;;;;;;;8.86;100.00;102174.69;4943701;28;20123;-76
2023/04/17 01:43:21;;;;;;;52.22;26.17;;;;;;;8.91;100.00;102169.00;4968778;28;20046;-75
2023/04/17 01:45:46;;;;;;;59.85;27.65;;;;;;;8.88;100.00;102180.94;4962064;28;20126;-76
2023/04/17 01:48:11;;;;;;;61.75;27.23;;;;;;;9.00;100.00;102177.59;4975532;28;20034;-76
2023/04/17 01:50:37;;;;;;;66.03;28.92;;;;;;;8.90;100.00;102176.28;4959726;28;20086;-76
2023/04/17 01:53:02;;;;;;;55.50;26.65;;;;;;;9.04;100.00;102172.00;4959030;28;20047;-75
2023/04/17 01:55:28;;;;;;;57.05;26.55;;;;;;;8.93;100.00;102164.31;4975994;28;20035;-76
2023/04/17 01:57:53;;;;;;;54.83;27.88;;;;;;;8.87;100.00;102176.47;4975308;28;20042;-75
2023/04/17 02:00:19;;;;;;;49.88;25.73;;;;;;;8.88;100.00;102180.94;4977281;28;20395;-77
2023/04/17 02:02:45;;;;;;;59.75;27.13;;;;;;;8.88;100.00;102182.81;4979245;28;20540;-76
2023/04/17 02:05:10;;;;;;;52.28;26.42;;;;;;;8.80;100.00;102178.59;4976618;28;20121;-75
2023/04/17 02:07:35;;;;;;;55.75;27.25;;;;;;;8.89;100.00;102180.00;4976622;28;20045;-75
2023/04/17 02:10:01;;;;;;;61.50;27.63;;;;;;;8.85;100.00;102180.22;4974680;28;20118;-75
2023/04/17 02:12:26;;;;;;;60.05;27.42;;;;;;;8.90;100.00;102183.59;4974456;28;20363;-75
2023/04/17 02:14:52;;;;;;;55.13;27.35;;;;;;;8.83;100.00;102166.63;4975290;28;20043;-75
2023/04/17 02:17:17;;;;;;;58.00;26.70;;;;;;;8.93;100.00;102187.06;5005946;28;20043;-76
2023/04/17 02:19:42;;;;;;;60.22;27.08;;;;;;;8.95;100.00;102182.44;4971876;28;20437;-75
2023/04/17 02:22:08;;;;;;;57.15;28.13;;;;;;;8.95;100.00;102187.88;4978135;28;20065;-75
2023/04/17 02:24:33;;;;;;;56.65;27.33;;;;;;;8.93;100.00;102187.06;4981427;28;20056;-75
2023/04/17 02:26:59;;;;;;;62.20;27.65;;;;;;;8.94;100.00;102186.09;4973837;28;20030;-75
2023/04/17 02:29:24;;;;;;;60.03;28.30;;;;;;;8.93;100.00;102188.91;4973880;28;20049;-75
2023/04/17 02:31:50;;;;;;;55.17;26.90;;;;;;;9.10;100.00;102186.22;4970491;28;20046;-75
2023/04/17 02:34:15;;;;;;;59.92;29.00;;;;;;;9.00;100.00;102180.34;4960160;28;20049;-74
2023/04/17 02:36:41;;;;;;;64.07;29.52;;;;;;;8.97;100.00;102182.34;4973913;28;20110;-73
2023/04/17 02:39:06;;;;;;;65.05;28.48;;;;;;;8.90;100.00;102180.88;4961348;28;20066;-73
2023/04/17 02:41:32;;;;;;;60.28;27.08;;;;;;;8.80;100.00;102167.66;4980743;28;20027;-73
2023/04/17 02:43:59;;;;;;;59.13;26.70;;;;;;;9.00;100.00;102188.53;4960525;28;20035;-74
2023/04/17 02:46:25;;;;;;;63.63;28.30;;;;;;;8.84;100.00;102184.81;4998529;28;20187;-74
2023/04/17 02:48:50;;;;;;;65.88;28.27;;;;;;;8.89;100.00;102187.31;4978341;28;20134;-75
2023/04/17 02:51:15;;;;;;;61.80;29.00;;;;;;;8.88;100.00;102186.41;4984753;28;20051;-74
2023/04/17 02:53:41;;;;;;;55.10;27.63;;;;;;;8.86;100.00;102188.34;4991042;28;20129;-74
2023/04/17 02:56:06;;;;;;;57.40;27.60;;;;;;;8.84;100.00;102187.53;4977437;28;20074;-74
2023/04/17 02:58:32;;;;;;;62.00;27.92;;;;;;;8.85;100.00;102186.56;4954315;28;20039;-74
2023/04/17 03:01:02;;;;;;;63.97;27.98;;;;;;;8.89;100.00;102199.13;4975567;28;20031;-74
2023/04/17 03:03:29;;;;;;;64.80;28.98;;;;;;;8.85;100.00;102194.75;4974069;28;20031;-74
2023/04/17 03:05:56;;;;;;;66.82;29.27;;;;;;;8.83;100.00;102191.22;4964496;28;20027;-74
2023/04/17 03:08:23;;;;;;;58.55;27.27;;;;;;;8.93;100.00;102206.19;4976229;28;20126;-73
2023/04/17 03:10:48;;;;;;;62.20;28.55;;;;;;;8.93;100.00;102197.09;4968411;28;20042;-74
2023/04/17 03:13:14;;;;;;;63.60;28.05;;;;;;;8.85;100.00;102193.88;4966986;28;20043;-74
2023/04/17 03:15:40;;;;;;;59.22;27.50;;;;;;;8.81;100.00;102201.34;4974182;28;20027;-74
2023/04/17 03:18:05;;;;;;;69.93;30.23;;;;;;;8.82;100.00;102200.38;4978086;28;20114;-73
2023/04/17 03:20:31;;;;;;;64.88;27.90;;;;;;;8.85;100.00;102204.81;4973458;28;20065;-75
2023/04/17 03:22:56;;;;;;;70.30;28.65;;;;;;;8.73;100.00;102201.72;4969561;28;20077;-74
2023/04/17 03:25:21;;;;;;;64.32;28.45;;;;;;;8.78;100.00;102202.38;4984395;28;20030;-73
2023/04/17 03:27:47;;;;;;;73.32;26.98;;;;;;;8.82;100.00;102200.38;4962105;28;20154;-73
2023/04/17 03:30:12;;;;;;;66.85;28.08;;;;;;;8.74;100.00;102194.41;4955003;28;20570;-74
2023/04/17 03:32:38;;;;;;;59.30;28.55;;;;;;;8.71;100.00;102197.31;4974177;28;20097;-74
2023/04/17 03:35:04;;;;;;;63.25;27.55;;;;;;;8.75;100.00;102190.72;4956166;28;20050;-74
2023/04/17 03:37:30;;;;;;;68.65;29.52;;;;;;;8.73;100.00;102196.25;4982620;28;20035;-74
2023/04/17 03:39:56;;;;;;;69.15;28.77;;;;;;;8.65;100.00;102199.34;4989130;28;20474;-74
2023/04/17 03:42:23;;;;;;;77.38;30.48;;;;;;;8.82;100.00;102203.09;4957101;28;20058;-76
2023/04/17 03:44:49;;;;;;;72.10;29.02;;;;;;;8.61;100.00;102194.16;4953318;28;20110;-75
2023/04/17 03:47:14;;;;;;;62.35;27.80;;;;;;;8.79;100.00;102201.41;4954862;28;22086;-77
2023/04/17 03:49:40;;;;;;;86.97;31.48;;;;;;;8.65;100.00;102179.38;4972157;28;20043;-74
2023/04/17 03:52:05;;;;;;;70.20;30.23;;;;;;;8.63;100.00;102193.09;4961711;28;20415;-74
2023/04/17 03:54:34;;;;;;;72.30;29.67;;;;;;;8.71;100.00;102187.25;4981596;28;20035;-77
2023/04/17 03:57:01;;;;;;;74.15;31.45;;;;;;;8.76;100.00;102200.69;4974914;28;20039;-74
2023/04/17 03:59:26;;;;;;;75.00;29.63;;;;;;;8.74;100.00;102197.13;4957229;28;20046;-74
2023/04/17 04:01:53;;;;;;;80.65;31.02;;;;;;;8.72;100.00;102197.22;4924009;28;20405;-73
2023/04/17 04:04:18;;;;;;;72.53;30.60;;;;;;;8.75;100.00;102194.31;4983633;28;20035;-73
2023/04/17 04:06:46;;;;;;;75.60;32.30;;;;;;;8.76;100.00;102187.03;4971007;28;20045;-75
2023/04/17 04:09:14;;;;;;;82.63;32.10;;;;;;;8.75;100.00;102197.06;4953423;28;20502;-74
2023/04/17 04:11:39;;;;;;;70.28;28.65;;;;;;;8.86;100.00;102196.53;4952464;28;20034;-74
2023/04/17 04:14:05;;;;;;;72.18;30.98;;;;;;;8.83;100.00;102197.56;4950614;28;20031;-76
2023/04/17 04:16:30;;;;;;;80.72;32.05;;;;;;;8.82;100.00;102214.03;4954423;28;20071;-74
2023/04/17 04:18:56;;;;;;;80.80;31.85;;;;;;;8.83;100.00;102207.59;4977193;28;20122;-74
2023/04/17 04:21:22;;;;;;;75.70;31.45;;;;;;;8.72;100.00;102197.22;4946027;28;20037;-75
2023/04/17 04:23:48;;;;;;;79.07;32.50;;;;;;;8.76;100.00;102204.31;4958915;28;20166;-76
2023/04/17 04:26:15;;;;;;;76.07;31.80;;;;;;;8.73;100.00;102204.44;4955485;28;20039;-74
2023/04/17 04:28:42;;;;;;;82.43;33.65;;;;;;;8.73;100.00;102203.56;4971066;28;20394;-74
2023/04/17 04:31:08;;;;;;;76.03;30.48;;;;;;;8.72;100.00;102205.41;4970583;28;20031;-74
2023/04/17 04:33:34;;;;;;;77.57;32.67;;;;;;;8.91;100.00;102204.50;4971081;28;20050;-73
2023/04/17 04:36:00;;;;;;;72.95;30.85;;;;;;;8.91;100.00;102204.50;4986062;28;20047;-73
2023/04/17 04:38:30;;;;;;;71.10;31.05;;;;;;;8.77;100.00;102211.53;4954461;28;20042;-75
2023/04/17 04:41:00;;;;;;;68.47;31.40;;;;;;;8.84;100.00;102217.59;4961182;28;20032;-74
2023/04/17 04:43:29;;;;;;;70.30;31.40;;;;;;;8.74;100.00;102218.97;4996582;28;20037;-74
2023/04/17 04:45:55;;;;;;;69.93;30.40;;;;;;;8.72;100.00;102224.50;4963088;28;20041;-73
2023/04/17 04:48:20;;;;;;;76.53;32.75;;;;;;;8.75;100.00;102223.50;4971563;28;20410;-77
2023/04/17 04:50:46;;;;;;;80.28;33.92;;;;;;;8.76;100.00;102225.28;4966775;28;20046;-73
2023/04/17 04:53:11;;;;;;;75.13;32.60;;;;;;;8.76;100.00;102225.28;4984534;28;20042;-75
2023/04/17 04:55:37;;;;;;;79.28;33.65;;;;;;;8.73;100.00;102223.56;4949663;28;20109;-74
2023/04/17 04:58:02;;;;;;;83.72;33.78;;;;;;;8.71;100.00;102203.66;4970982;28;20050;-74
2023/04/17 05:00:28;;;;;;;72.63;32.22;;;;;;;8.78;100.00;102228.81;4999412;28;20546;-74
2023/04/17 05:02:53;;;;;;;70.15;31.75;;;;;;;8.82;100.00;102219.47;4972176;28;20159;-74
2023/04/17 05:05:19;;;;;;;74.82;33.58;;;;;;;8.89;100.00;102237.34;4956408;28;20490;-74
2023/04/17 05:07:44;;;;;;;68.38;32.15;;;;;;;8.92;100.00;102229.00;4989102;28;20035;-75
2023/04/17 05:10:10;;;;;;;57.03;27.27;;;;;;;8.94;100.00;102234.41;5005535;28;20071;-74
2023/04/17 05:12:35;;;;;;;73.68;31.23;;;;;;;8.67;100.00;102212.94;4957132;28;20222;-75
2023/04/17 05:15:01;;;;;;;73.50;32.10;;;;;;;8.83;100.00;102240.38;4971511;28;20027;-77
2023/04/17 05:17:26;;;;;;;68.95;31.27;;;;;;;8.77;100.00;102237.94;4956119;28;20074;-74
2023/04/17 05:19:52;;;;;;;75.18;32.83;;;;;;;8.62;100.00;102234.13;4937619;29;20467;-75
2023/04/17 05:22:17;;;;;;;72.57;32.65;;;;;;;8.73;100.00;102242.69;4991713;28;20104;-76
2023/04/17 05:24:43;;;;;;;70.68;32.30;;;;;;;8.75;100.00;102245.34;4963024;28;20047;-74
2023/04/17 05:27:08;;;;;;;71.65;33.08;;;;;;;8.68;100.00;102246.59;4976723;28;20035;-75
2023/04/17 05:29:36;;;;;;;62.08;31.02;;;;;;;8.74;100.00;102251.75;4975759;28;20118;-75
2023/04/17 05:32:01;;;;;;;68.07;29.83;;;;;;;8.81;100.00;102247.78;4973707;28;20082;-74
2023/04/17 05:34:27;;;;;;;70.80;29.33;;;;;;;8.87;100.00;102255.66;4940599;28;20039;-75
2023/04/17 05:36:53;;;;;;;67.93;31.08;;;;;;;8.73;100.00;102256.34;4997395;28;20047;-75
2023/04/17 05:39:18;;;;;;;67.75;31.40;;;;;;;8.73;100.00;102248.16;4975573;28;20035;-74
2023/04/17 05:41:43;;;;;;;70.35;31.60;;;;;;;8.73;100.00;102259.06;4975465;28;20039;-75
2023/04/17 05:44:09;;;;;;;77.15;31.77;;;;;;;8.72;100.00;102256.41;4956123;28;20039;-75
2023/04/17 05:46:34;;;;;;;71.30;31.23;;;;;;;8.82;100.00;102260.44;4988658;28;20090;-74
2023/04/17 05:49:03;;;;;;;70.70;31.50;;;;;;;8.83;100.00;102260.38;4971557;28;20122;-75
2023/04/17 05:51:28;;;;;;;75.15;31.98;;;;;;;8.77;100.00;102254.34;5008260;28;20081;-75
2023/04/17 05:53:54;;;;;;;71.28;32.13;;;;;;;8.79;100.00;102261.50;4975677;28;20447;-75
2023/04/17 05:56:22;;;;;;;72.75;32.25;;;;;;;8.74;100.00;102263.56;4951929;28;20043;-75
2023/04/17 05:58:47;;;;;;;78.00;32.58;;;;;;;8.71;100.00;102262.84;4971845;28;20096;-76
2023/04/17 06:01:16;;;;;;;80.32;33.70;;;;;;;8.81;100.00;102266.91;4946784;28;20035;-75
2023/04/17 06:03:41;;;;;;;72.97;32.42;;;;;;;8.82;100.00;102271.38;4993248;28;20086;-75
2023/04/17 06:06:10;;;;;;;74.63;33.70;;;;;;;8.83;100.00;102265.84;4982154;28;20035;-73
2023/04/17 06:08:36;;;;;;;71.10;31.65;;;;;;;8.90;100.00;102268.28;4955957;29;20499;-74
2023/04/17 06:11:01;;;;;;;70.43;31.67;;;;;;;8.87;100.00;102277.53;4964299;28;20038;-74
2023/04/17 06:13:27;;;;;;;74.22;31.52;;;;;;;8.88;100.00;102271.06;4959358;28;20049;-75
2023/04/17 06:15:52;;;;;;;80.88;32.83;;;;;;;8.79;100.00;102268.81;4974144;28;20035;-75
2023/04/17 06:18:18;;;;;;;73.38;32.03;;;;;;;8.83;100.00;102279.50;4970683;28;20038;-75
2023/04/17 06:20:44;;;;;;;76.50;30.90;;;;;;;8.86;100.00;102270.28;4971413;28;20105;-76
2023/04/17 06:23:10;;;;;;;87.35;34.65;;;;;;;8.88;100.00;102273.81;4977997;28;20043;-76
2023/04/17 06:25:36;;;;;;;72.18;31.10;;;;;;;8.92;100.00;102277.28;4973995;28;20487;-77
2023/04/17 06:28:01;;;;;;;76.13;32.00;;;;;;;8.95;100.00;102275.31;4960045;28;20121;-76
2023/04/17 06:30:27;;;;;;;79.55;33.70;;;;;;;8.97;100.00;102275.22;4970046;28;20035;-77
2023/04/17 06:32:52;;;;;;;77.47;33.35;;;;;;;8.92;100.00;102278.19;4955941;28;20046;-76
2023/04/17 06:35:18;;;;;;;71.30;31.02;;;;;;;9.03;100.00;102272.16;4951147;28;20035;-74
2023/04/17 06:37:43;;;;;;;76.82;32.42;;;;;;;9.00;100.00;102284.16;4987161;28;20030;-74
2023/04/17 06:40:11;;;;;;;74.97;33.63;;;;;;;8.88;100.00;102279.28;4970204;28;20443;-75
2023/04/17 06:42:36;;;;;;;72.53;32.17;;;;;;;9.01;100.00;102287.75;4958175;28;20031;-75
2023/04/17 06:45:02;;;;;;;71.10;32.10;;;;;;;9.02;100.00;102301.34;4972369;28;20089;-75
2023/04/17 06:47:28;;;;;;;79.53;32.05;;;;;;;8.91;100.00;102298.25;4974203;28;20062;-76
2023/04/17 06:49:56;;;;;;;72.57;32.60;;;;;;;9.01;100.00;102298.69;4969932;28;20541;-74
2023/04/17 06:52:22;;;;;;;73.47;31.13;;;;;;;9.03;100.00;102296.75;4957706;28;20046;-76
2023/04/17 06:54:47;;;;;;;72.00;32.72;;;;;;;9.00;100.00;102303.28;4954156;28;20452;-74
2023/04/17 06:57:13;;;;;;;72.88;31.48;;;;;;;8.98;100.00;102299.72;4959484;28;20035;-74
2023/04/17 06:59:39;;;;;;;71.38;31.80;;;;;;;8.93;100.00;102277.19;4971103;28;20089;-74
2023/04/17 07:02:04;;;;;;;78.53;32.75;;;;;;;9.01;100.00;102295.94;4951717;28;20038;-75
2023/04/17 07:04:30;;;;;;;70.88;31.58;;;;;;;8.93;100.00;102289.97;4998771;28;20043;-74
2023/04/17 07:06:56;;;;;;;72.25;31.88;;;;;;;8.90;100.00;102288.28;4998760;28;20047;-74
2023/04/17 07:09:22;;;;;;;69.95;30.42;;;;;;;9.12;100.00;102306.38;4972512;28;20562;-75
2023/04/17 07:11:47;;;;;;;69.47;31.55;;;;;;;9.26;100.00;102301.06;4974140;28;20031;-75
2023/04/17 07:14:13;;;;;;;63.55;31.27;;;;;;;9.22;100.00;102302.19;4985865;28;20034;-74
2023/04/17 07:16:38;;;;;;;71.70;31.70;;;;;;;9.04;100.00;102312.19;4982063;28;20035;-74
2023/04/17 07:19:04;;;;;;;76.05;31.33;;;;;;;9.16;100.00;102318.91;4981502;28;20621;-75
2023/04/17 07:21:29;;;;;;;71.60;30.90;;;;;;;9.06;100.00;102314.84;4974843;28;20023;-74
2023/04/17 07:23:55;;;;;;;65.70;29.50;;;;;;;9.14;100.00;102326.28;4998971;28;20549;-75
2023/04/17 07:26:21;;;;;;;73.93;31.58;;;;;;;9.16;100.00;102321.63;4970940;28;20035;-75
2023/04/17 07:28:47;;;;;;;75.18;31.48;;;;;;;9.19;100.00;102330.56;4990860;28;20383;-75
2023/04/17 07:31:12;;;;;;;74.70;31.23;;;;;;;9.20;100.00;102332.34;4972454;28;20045;-75
2023/04/17 07:33:38;;;;;;;68.95;29.95;;;;;;;9.55;100.00;102323.31;4954962;28;20114;-75
2023/04/17 07:36:05;;;;;;;71.50;30.52;;;;;;;9.57;100.00;102333.22;4944984;28;20438;-74
2023/04/17 07:38:31;;;;;;;76.43;30.38;;;;;;;9.52;100.00;102338.00;4971870;28;20023;-75
2023/04/17 07:40:57;;;;;;;68.45;29.58;;;;;;;9.63;100.00;102337.47;4970955;28;20082;-74
2023/04/17 07:43:23;;;;;;;68.45;27.63;;;;;;;9.94;100.00;102342.25;4962794;28;20434;-76
2023/04/17 07:45:48;;;;;;;64.03;30.10;;;;;;;9.65;100.00;102346.50;4942358;28;20559;-75
2023/04/17 07:48:16;;;;;;;63.03;28.35;;;;;;;9.55;100.00;102345.19;4985390;28;20074;-75
2023/04/17 07:50:41;;;;;;;70.35;31.33;;;;;;;9.45;100.00;102352.09;4970742;28;20051;-75
2023/04/17 07:53:10;;;;;;;68.53;31.08;;;;;;;9.44;100.00;102343.00;4968645;28;20039;-75
2023/04/17 07:55:35;;;;;;;72.88;31.10;;;;;;;9.53;100.00;102337.06;4972550;28;20035;-75
2023/04/17 07:58:02;;;;;;;70.28;30.63;;;;;;;9.71;100.00;102337.09;4971404;28;20044;-75
2023/04/17 08:00:29;;;;;;;71.35;31.52;;;;;;;9.64;100.00;102339.25;4957613;28;20041;-75
2023/04/17 08:02:54;;;;;;;65.22;30.05;;;;;;;9.86;100.00;102346.34;4987068;28;20046;-74
2023/04/17 08:05:20;;;;;;;66.78;30.60;;;;;;;9.97;100.00;102356.72;4969275;28;20043;-74
2023/04/17 08:07:47;;;;;;;64.75;29.98;;;;;;;9.74;100.00;102351.50;4972143;28;20517;-75
2023/04/17 08:10:12;;;;;;;72.65;29.65;;;;;;;9.88;100.00;102344.41;4987884;28;20114;-75
2023/04/17 08:12:37;;;;;;;69.78;28.92;;;;;;;9.97;100.00;102352.16;4959040;28;20050;-75
2023/04/17 08:15:04;;;;;;;59.58;28.80;;;;;;;9.82;100.00;102351.09;4953305;29;20078;-75
2023/04/17 08:17:29;;;;;;;64.88;29.25;;;;;;;9.95;100.00;102354.06;4971321;28;20063;-74
2023/04/17 08:19:56;;;;;;;61.60;30.35;;;;;;;9.93;100.00;102359.63;4961272;28;20043;-74
2023/04/17 08:22:23;;;;;;;66.15;30.48;;;;;;;9.99;100.00;102350.22;4954931;28;20038;-75
2023/04/17 08:24:49;;;;;;;60.28;27.88;;;;;;;10.05;100.00;102349.00;4966525;28;20047;-75
2023/04/17 08:27:15;;;;;;;63.67;28.00;;;;;;;10.17;100.00;102358.44;4998823;28;20031;-75
2023/04/17 08:29:42;;;;;;;66.35;30.38;;;;;;;10.21;100.00;102357.28;4974103;28;20591;-74
2023/04/17 08:32:08;;;;;;;65.20;30.90;;;;;;;10.16;100.00;102370.34;4971228;28;20055;-75
2023/04/17 08:34:34;;;;;;;66.43;30.38;;;;;;;9.89;100.00;102354.41;4949602;28;20699;-75
2023/04/17 08:37:04;;;;;;;66.35;30.38;;;;;;;10.07;100.00;102369.84;4953480;28;20043;-75
2023/04/17 08:39:29;;;;;;;71.13;31.40;;;;;;;10.06;100.00;102373.53;4973299;28;20046;-75
2023/04/17 08:41:59;;;;;;;66.68;30.95;;;;;;;10.24;100.00;102368.06;4959331;28;20112;-75
2023/04/17 08:44:25;;;;;;;68.35;31.73;;;;;;;10.33;100.00;102373.09;4967652;28;20081;-75
2023/04/17 08:46:54;;;;;;;71.70;33.03;;;;;;;10.19;100.00;102368.31;4958420;28;20039;-76
2023/04/17 08:49:20;;;;;;;67.85;31.42;;;;;;;10.41;100.00;102372.66;4961192;28;20027;-77
2023/04/17 08:51:46;;;;;;;72.38;30.77;;;;;;;10.63;100.00;102373.28;4981035;28;20039;-77
2023/04/17 08:54:11;;;;;;;71.30;31.42;;;;;;;10.82;100.00;102373.16;4937322;28;20553;-74
2023/04/17 08:56:37;;;;;;;67.45;30.83;;;;;;;10.82;100.00;102369.50;4973327;28;20114;-74
2023/04/17 08:59:03;;;;;;;64.70;29.95;;;;;;;10.61;100.00;102367.00;4975863;28;20399;-76
2023/04/17 09:01:28;;;;;;;72.75;33.70;;;;;;;10.92;100.00;102365.28;4979522;28;20471;-76
2023/04/17 09:03:55;;;;;;;71.72;32.83;;;;;;;10.93;100.00;102357.94;4980794;28;20035;-77
2023/04/17 09:06:21;;;;;;;64.45;31.30;;;;;;;10.96;100.00;102341.34;4966269;28;20038;-76
2023/04/17 09:09:00;;;;;;;66.57;30.38;;;;;;;11.44;100.00;102361.41;4947626;29;20407;-76
2023/04/17 09:11:26;;;;;;;69.30;30.40;;;;;;;11.44;100.00;102369.63;4979910;28;20028;-76
2023/04/17 09:13:52;;;;;;;67.95;30.85;;;;;;;11.64;100.00;102370.31;4983888;28;20034;-76
2023/04/17 09:16:19;;;;;;;54.90;26.83;;;;;;;11.86;100.00;102359.81;4983763;28;20034;-76
2023/04/17 09:18:45;;;;;;;60.05;29.92;;;;;;;12.01;100.00;102357.16;4986290;28;20035;-75
2023/04/17 09:21:15;;;;;;;63.03;26.88;;;;;;;12.14;100.00;102372.78;5016062;28;20102;-75
2023/04/17 09:23:53;;;;;;;56.60;27.77;;;;;;;12.10;100.00;102367.56;4979337;28;20465;-75
2023/04/17 09:26:23;;;;;;;55.97;28.80;;;;;;;12.33;100.00;102371.66;4974457;28;20122;-74
2023/04/17 09:29:13;;;;;;;56.22;28.52;;;;;;;12.10;100.00;102364.81;4961944;28;20052;-77
2023/04/17 09:31:40;;;;;;;57.60;27.75;;;;;;;12.37;100.00;102364.09;4989434;28;20035;-74
2023/04/17 09:34:08;;;;;;;62.22;28.10;;;;;;;12.11;100.00;102366.59;4992006;28;20063;-74
2023/04/17 09:36:37;;;;;;;53.63;28.33;;;;;;;12.09;100.00;102360.31;4944680;29;20043;-74
2023/04/17 09:39:14;;;;;;;50.28;27.48;;;;;;;12.13;100.00;102365.53;4956411;28;20031;-76
2023/04/17 09:41:40;;;;;;;52.60;25.10;;;;;;;12.79;100.00;102360.50;4986680;28;20430;-74
2023/04/17 09:44:06;;;;;;;56.33;28.17;;;;;;;12.55;100.00;102354.69;4962119;28;20047;-77
2023/04/17 09:46:48;;;;;;;56.33;27.23;;;;;;;13.05;100.00;102364.31;5003327;28;20031;-75
2023/04/17 09:49:35;;;;;;;55.35;28.02;;;;;;;13.22;100.00;102367.81;4975686;28;20042;-75
2023/04/17 09:52:01;;;;;;;49.58;25.30;;;;;;;13.47;100.00;102363.47;4961827;28;20077;-75
2023/04/17 09:54:30;;;;;;;47.22;25.88;;;;;;;13.14;100.00;102364.69;4988736;28;20098;-75
2023/04/17 09:56:57;;;;;;;54.10;26.27;;;;;;;13.03;100.00;102358.00;5005851;28;20030;-74
2023/04/17 09:59:24;;;;;;;53.15;25.83;;;;;;;12.98;100.00;102362.91;4986331;28;20035;-74
2023/04/17 10:01:52;;;;;;;45.35;24.15;;;;;;;13.16;100.00;102362.72;4979343;28;20097;-74
2023/04/17 10:04:18;;;;;;;49.00;25.80;;;;;;;13.20;100.00;102365.16;4974161;28;20045;-74
2023/04/17 10:06:44;;;;;;;47.15;24.70;;;;;;;13.49;100.00;102358.72;4957590;28;20398;-76
2023/04/17 10:09:10;;;;;;;55.88;27.95;;;;;;;13.27;100.00;102360.13;4987965;28;20031;-77
2023/04/17 10:11:39;;;;;;;50.85;24.83;;;;;;;13.31;100.00;102369.94;4972870;28;20042;-75
2023/04/17 10:14:18;;;;;;;44.88;23.95;;;;;;;13.23;100.00;102361.31;4974529;28;20105;-76
2023/04/17 10:16:46;;;;;;;49.70;25.80;;;;;;;13.29;100.00;102365.53;4959176;28;20564;-75
2023/04/17 10:19:35;;;;;;;51.83;25.65;;;;;;;13.41;100.00;102357.38;4991437;28;20491;-75
2023/04/17 10:22:13;;;;;;;50.67;25.80;;;;;;;13.49;100.00;102366.97;4979292;28;20403;-75
2023/04/17 10:24:38;;;;;;;48.20;25.27;;;;;;;13.00;100.00;102365.56;4959836;28;20027;-75
2023/04/17 10:27:26;;;;;;;53.67;26.17;;;;;;;13.15;100.00;102366.44;5002936;28;20407;-75
2023/04/17 10:29:53;;;;;;;49.33;26.58;;;;;;;12.93;100.00;102366.97;4955883;29;20039;-75
2023/04/17 10:32:20;;;;;;;55.38;27.27;;;;;;;12.92;100.00;102366.09;5002882;28;20043;-74
2023/04/17 10:34:45;;;;;;;48.67;26.23;;;;;;;13.11;100.00;102367.63;4957088;28;20126;-74
2023/04/17 10:37:14;;;;;;;50.88;26.05;;;;;;;13.24;100.00;102354.84;4988146;28;20162;-74
2023/04/17 10:39:50;;;;;;;53.33;26.85;;;;;;;13.74;100.00;102360.69;4971553;28;20047;-74
2023/04/17 10:42:20;;;;;;;49.88;26.40;;;;;;;13.57;100.00;102357.22;4957229;28;20035;-78
2023/04/17 10:44:47;;;;;;;45.75;26.23;;;;;;;13.42;100.00;102356.38;5002281;28;20395;-74
2023/04/17 10:47:13;;;;;;;42.67;22.65;;;;;;;13.82;100.00;102354.66;4982456;28;20513;-74
2023/04/17 10:49:58;;;;;;;48.33;24.52;;;;;;;13.78;100.00;102348.50;4987982;28;20039;-75
2023/04/17 10:52:38;;;;;;;47.65;25.75;;;;;;;14.45;100.00;102345.63;4955851;28;20134;-75
2023/04/17 10:55:19;;;;;;;45.92;24.63;;;;;;;14.90;100.00;102347.91;4969092;28;20541;-75
2023/04/17 10:57:58;;;;;;;49.72;26.75;;;;;;;14.66;100.00;102345.09;4987773;28;20034;-75
2023/04/17 11:00:30;;;;;;;41.92;24.95;;;;;;;14.81;100.00;102348.63;4959864;28;20387;-75
2023/04/17 11:02:56;;;;;;;38.40;21.77;;;;;;;15.36;100.00;102340.84;4974680;28;20041;-75
2023/04/17 11:05:22;;;;;;;38.03;22.25;;;;;;;15.23;100.00;102333.50;4958604;28;20430;-74